Time;durP1;ratioP1;P1;durP2;ratioP2;P2;SDS_P1;SDS_P2;PMS_P1;PMS_P2;Temp;Humidity;BMP_temperature;BMP_pressure;BME280_temperature;BME280_humidity;BME280_pressure;Samples;Min_cycle;Max_cycle;Signal;HPM_P1;HPM_P2
2022/10/04 00:01:53;;;;;;;;;;;;;;;22.04;65.83;100840.44;7404316;19;1790;-42
2022/10/04 00:04:27;;;;;;;;;;;;;;;22.05;65.63;100858.28;7402550;19;1896;-43
2022/10/04 00:07:03;;;;;;;;;;;;;;;22.00;65.99;100829.16;7404593;19;1585;-43
2022/10/04 00:09:37;;;;;;;;;;;;;;;22.01;65.87;100830.81;7405443;19;1666;-43
2022/10/04 00:12:08;;;;;;;;;;;;;;;22.02;65.75;100842.44;7405022;19;1800;-43
2022/10/04 00:14:45;;;;;;;;;;;;;;;22.02;65.67;100845.13;7405236;19;1721;-43
2022/10/04 00:17:21;;;;;;;;;;;;;;;22.00;65.80;100856.06;7404044;19;1865;-43
2022/10/04 00:19:50;;;;;;;;;;;;;;;21.98;65.51;100849.13;7404307;19;1790;-43
2022/10/04 00:22:23;;;;;;;;;;;;;;;21.98;65.57;100838.34;7405123;19;1640;-43
2022/10/04 00:25:23;;;;;;;;;;;;;;;22.00;65.64;100845.31;7404894;19;1572;-43
2022/10/04 00:28:12;;;;;;;;;;;;;;;22.01;65.59;100841.59;7404895;19;1573;-45
2022/10/04 00:30:47;;;;;;;;;;;;;;;21.97;65.49;100860.91;7405165;19;1662;-43
2022/10/04 00:33:35;;;;;;;;;;;;;;;22.04;65.32;100856.59;7404796;19;1530;-43
2022/10/04 00:36:27;;;;;;;;;;;;;;;21.99;65.57;100848.13;7404688;19;1870;-43
2022/10/04 00:39:08;;;;;;;;;;;;;;;22.01;65.40;100829.97;7404939;19;2187;-43
2022/10/04 00:41:40;;;;;;;;;;;;;;;21.99;65.55;100842.75;7404268;19;2065;-43
2022/10/04 00:44:12;;;;;;;;;;;;;;;22.01;65.25;100840.75;7403284;19;1910;-43
2022/10/04 00:46:47;;;;;;;;;;;;;;;22.01;65.33;100851.53;7404393;19;1715;-42
2022/10/04 00:49:22;;;;;;;;;;;;;;;22.00;65.21;100847.13;7404170;19;1706;-43
2022/10/04 00:51:57;;;;;;;;;;;;;;;21.98;65.27;100851.81;7403724;19;1567;-43
2022/10/04 00:54:37;;;;;;;;;;;;;;;21.99;65.20;100840.06;7402175;19;1699;-43
2022/10/04 00:57:13;;;;;;;;;;;;;;;21.99;65.38;100826.59;7402588;19;1869;-43
2022/10/04 00:59:44;;;;;;;;;;;;;;;21.99;65.03;100840.06;7404997;19;1807;-42
2022/10/04 01:02:25;;;;;;;;;;;;;;;21.97;65.25;100828.59;7402974;19;1564;-42
2022/10/04 01:04:59;;;;;;;;;;;;;;;21.98;65.16;100851.81;7403838;19;1915;-42
2022/10/04 01:07:30;;;;;;;;;;;;;;;21.94;65.41;100839.66;7403907;19;1721;-42
2022/10/04 01:10:04;;;;;;;;;;;;;;;21.94;65.24;100829.72;7405116;19;1566;-43
2022/10/04 01:12:41;;;;;;;;;;;;;;;21.97;65.04;100842.06;7403625;19;1823;-43
2022/10/04 01:15:14;;;;;;;;;;;;;;;21.96;65.02;100837.66;7403022;19;2040;-42
2022/10/04 01:18:09;;;;;;;;;;;;;;;21.97;65.05;100829.44;7402068;19;1862;-42
2022/10/04 01:20:40;;;;;;;;;;;;;;;21.97;64.90;100855.53;7403559;19;1603;-42
2022/10/04 01:23:12;;;;;;;;;;;;;;;21.94;65.07;100829.72;7403926;19;1803;-42
2022/10/04 01:25:51;;;;;;;;;;;;;;;21.91;65.01;100839.97;7402370;19;1779;-42
2022/10/04 01:28:20;;;;;;;;;;;;;;;21.93;65.22;100841.50;7402210;19;1700;-42
2022/10/04 01:30:50;;;;;;;;;;;;;;;21.86;64.91;100829.66;7401584;19;1420;-43
2022/10/04 01:33:20;;;;;;;;;;;;;;;21.89;64.97;100833.91;7402217;19;1525;-42
2022/10/04 01:35:51;;;;;;;;;;;;;;;21.89;65.03;100833.91;7403943;19;1582;-42
2022/10/04 01:38:24;;;;;;;;;;;;;;;21.90;65.04;100840.97;7401743;19;1855;-43
2022/10/04 01:41:17;;;;;;;;;;;;;;;;;;;;;
2022/10/04 01:43:54;;;;;;;;;;;;;;;21.92;64.79;100842.50;7400461;19;1529;-42
2022/10/04 01:46:30;;;;;;;;;;;;;;;21.92;64.86;100841.66;7401903;19;1621;-43
2022/10/04 01:49:08;;;;;;;;;;;;;;;21.94;64.57;100848.56;7402034;19;1676;-43
2022/10/04 01:51:40;;;;;;;;;;;;;;;21.90;64.62;100849.03;7402009;19;1859;-42
2022/10/04 01:54:15;;;;;;;;;;;;;;;21.93;64.62;100851.44;7402991;19;1624;-43
2022/10/04 01:59:48;;;;;;;;;;;;;;;21.92;64.63;100853.28;7400438;19;2229;-43
2022/10/04 02:02:27;;;;;;;;;;;;;;;21.93;64.81;100865.75;7394143;19;3580;-68
2022/10/04 02:04:58;;;;;;;;;;;;;;;21.89;64.72;100858.97;7404678;19;1568;-68
2022/10/04 02:07:28;;;;;;;;;;;;;;;21.91;64.59;100866.91;7404961;19;1474;-68
2022/10/04 02:10:01;;;;;;;;;;;;;;;21.90;64.71;100859.81;7402690;19;1513;-68
2022/10/04 02:12:30;;;;;;;;;;;;;;;21.88;64.62;100872.59;7404059;19;1443;-68
2022/10/04 02:15:01;;;;;;;;;;;;;;;21.88;64.72;100859.13;7403817;19;1608;-68
2022/10/04 02:17:31;;;;;;;;;;;;;;;21.93;64.72;100875.69;7404252;19;1867;-69
2022/10/04 02:20:00;;;;;;;;;;;;;;;21.91;64.80;100869.59;7405414;19;1644;-72
2022/10/04 02:22:29;;;;;;;;;;;;;;;21.86;64.62;100859.25;7403042;19;1411;-72
2022/10/04 02:25:01;;;;;;;;;;;;;;;21.87;64.59;100865.53;7403473;19;1304;-73
2022/10/04 02:27:30;;;;;;;;;;;;;;;21.85;64.72;100861.13;7404284;19;1388;-72
2022/10/04 02:30:02;;;;;;;;;;;;;;;21.84;64.46;100863.97;7404578;19;1351;-72
2022/10/04 02:35:16;;;;;;;;;;;;;;;21.86;64.68;100880.81;7404786;19;1399;-68
2022/10/04 02:37:44;;;;;;;;;;;;;;;21.85;64.55;100879.97;7402849;19;1845;-68
2022/10/04 02:40:18;;;;;;;;;;;;;;;21.84;64.56;100885.50;7402811;19;1303;-68
2022/10/04 02:42:49;;;;;;;;;;;;;;;21.87;64.63;100876.28;7404164;19;1304;-69
2022/10/04 02:45:21;;;;;;;;;;;;;;;21.90;64.52;100898.34;7402441;19;1759;-69
2022/10/04 02:47:56;;;;;;;;;;;;;;;21.91;64.54;100891.13;7402942;19;1766;-69
2022/10/04 02:50:30;;;;;;;;;;;;;;;21.87;64.53;100901.34;7402198;19;1466;-69
2022/10/04 02:53:00;;;;;;;;;;;;;;;21.84;64.54;100893.56;7402858;19;1866;-69
2022/10/04 02:55:32;;;;;;;;;;;;;;;21.88;64.47;100905.72;7400831;19;1891;-68
2022/10/04 02:58:01;;;;;;;;;;;;;;;21.88;64.35;100910.28;7400868;19;1832;-69
2022/10/04 03:00:30;;;;;;;;;;;;;;;21.83;64.42;100900.81;7402818;19;1365;-69
2022/10/04 03:03:17;;;;;;;;;;;;;;;21.82;64.51;100912.56;7402091;19;1546;-68
2022/10/04 03:05:48;;;;;;;;;;;;;;;21.82;64.29;100900.94;7402036;19;1586;-69
2022/10/04 03:08:17;;;;;;;;;;;;;;;21.82;64.55;100898.25;7402429;19;1347;-69
2022/10/04 03:10:49;;;;;;;;;;;;;;;21.83;64.36;100903.50;7403335;19;1313;-69
2022/10/04 03:13:21;;;;;;;;;;;;;;;21.78;64.28;100895.00;7402684;19;1683;-69
2022/10/04 03:15:51;;;;;;;;;;;;;;;21.86;64.41;100931.94;7401344;19;1648;-69
2022/10/04 03:18:20;;;;;;;;;;;;;;;21.85;64.15;100900.66;7406059;19;1841;-69
2022/10/04 03:20:49;;;;;;;;;;;;;;;21.85;64.28;100916.81;7410306;19;1305;-69
2022/10/04 03:23:19;;;;;;;;;;;;;;;21.90;64.74;100908.28;7410522;19;1270;-77
2022/10/04 03:25:50;;;;;;;;;;;;;;;21.89;64.48;100911.97;7410423;19;1304;-71
2022/10/04 03:28:22;;;;;;;;;;;;;;;21.92;64.41;100917.88;7410110;19;1656;-81
2022/10/04 03:30:51;;;;;;;;;;;;;;;21.88;64.85;100910.28;7409240;19;1573;-72
2022/10/04 03:33:22;;;;;;;;;;;;;;;21.92;64.64;100912.50;7407840;19;1354;-71
2022/10/04 03:35:52;;;;;;;;;;;;;;;21.98;64.24;100916.44;7409489;19;1379;-68
2022/10/04 03:38:21;;;;;;;;;;;;;;;22.00;64.56;100930.59;7406568;19;1842;-79
2022/10/04 03:40:55;;;;;;;;;;;;;;;22.00;64.50;100935.97;7408278;19;1268;-72
2022/10/04 03:43:29;;;;;;;;;;;;;;;21.98;64.53;100940.69;7407087;19;1578;-74
2022/10/04 03:45:58;;;;;;;;;;;;;;;22.02;64.24;100933.97;7409270;19;1307;-70
2022/10/04 03:48:32;;;;;;;;;;;;;;;22.08;64.63;100946.84;7404689;19;1533;-70
2022/10/04 03:51:01;;;;;;;;;;;;;;;22.01;64.80;100954.69;7408517;19;1661;-71
2022/10/04 03:53:31;;;;;;;;;;;;;;;22.03;64.63;100931.16;7408723;19;1450;-67
2022/10/04 03:56:01;;;;;;;;;;;;;;;22.07;64.43;100931.69;7405761;19;1387;-67
2022/10/04 03:58:32;;;;;;;;;;;;;;;22.06;64.37;100946.16;7406248;19;1871;-67
2022/10/04 04:01:07;;;;;;;;;;;;;;;22.13;64.42;100949.94;7403209;19;1731;-68
2022/10/04 04:03:43;;;;;;;;;;;;;;;22.08;64.93;100962.16;7404368;19;1604;-68
2022/10/04 04:06:15;;;;;;;;;;;;;;;22.06;64.85;100956.91;7402812;19;1656;-70
2022/10/04 04:08:45;;;;;;;;;;;;;;;22.08;64.83;100960.31;7402860;19;1344;-69
2022/10/04 04:11:18;;;;;;;;;;;;;;;22.06;64.58;100948.84;7406234;19;1435;-69
2022/10/04 04:13:51;;;;;;;;;;;;;;;22.06;64.48;100948.84;7406427;19;1482;-76
2022/10/04 04:16:22;;;;;;;;;;;;;;;22.06;65.01;100962.31;7407189;19;1543;-75
2022/10/04 04:18:52;;;;;;;;;;;;;;;22.05;64.93;100966.84;7407404;19;1844;-81
2022/10/04 04:21:22;;;;;;;;;;;;;;;22.05;64.88;100971.41;7406895;19;1700;-69
2022/10/04 04:23:52;;;;;;;;;;;;;;;22.02;64.85;100967.16;7406345;19;1546;-73
2022/10/04 04:26:25;;;;;;;;;;;;;;;22.07;65.17;100972.09;7405436;19;1398;-70
2022/10/04 04:28:58;;;;;;;;;;;;;;;22.06;65.08;100967.69;7404652;19;1643;-68
2022/10/04 04:31:28;;;;;;;;;;;;;;;22.11;64.99;100975.34;7407415;19;1514;-73
2022/10/04 04:33:59;;;;;;;;;;;;;;;22.08;64.94;100959.47;7406486;19;1165;-68
2022/10/04 04:36:28;;;;;;;;;;;;;;;22.07;65.00;100963.19;7407313;19;1359;-66
2022/10/04 04:41:49;;;;;;;;;;;;;;;22.07;64.80;100974.78;7407415;19;1292;-68
2022/10/04 04:44:20;;;;;;;;;;;;;;;22.07;64.95;100985.56;7405502;19;1463;-68
2022/10/04 04:46:49;;;;;;;;;;;;;;;22.08;64.90;100981.84;7405717;19;1585;-65
2022/10/04 04:49:20;;;;;;;;;;;;;;;22.11;64.71;100989.66;7406747;19;1394;-64
2022/10/04 04:51:51;;;;;;;;;;;;;;;22.15;64.71;100982.97;7407555;19;1351;-71
2022/10/04 04:54:22;;;;;;;;;;;;;;;22.13;64.63;100984.97;7406300;19;1538;-67
2022/10/04 04:56:52;;;;;;;;;;;;;;;22.15;64.88;100998.28;7406070;19;1661;-68
2022/10/04 04:59:26;;;;;;;;;;;;;;;22.15;64.75;101004.50;7404170;19;1827;-66
2022/10/04 05:01:55;;;;;;;;;;;;;;;22.12;64.75;101009.34;7403875;19;1368;-66
2022/10/04 05:04:27;;;;;;;;;;;;;;;22.10;64.63;101012.19;7401436;19;1450;-67
2022/10/04 05:07:03;;;;;;;;;;;;;;;22.15;64.85;101012.59;7404511;19;1565;-68
2022/10/04 05:09:33;;;;;;;;;;;;;;;22.15;64.61;101017.97;7406966;19;1324;-73
2022/10/04 05:12:07;;;;;;;;;;;;;;;22.15;64.97;101026.06;7402973;19;1755;-67
2022/10/04 05:14:39;;;;;;;;;;;;;;;22.18;63.30;101025.78;7402427;19;1463;-67
2022/10/04 05:17:08;;;;;;;;;;;;;;;22.22;64.00;101042.44;7399033;19;1416;-64
2022/10/04 05:19:38;;;;;;;;;;;;;;;22.23;62.37;101028.00;7403374;19;1892;-63
2022/10/04 05:22:10;;;;;;;;;;;;;;;22.23;63.20;101039.63;7400954;19;1353;-64
2022/10/04 05:24:40;;;;;;;;;;;;;;;22.32;61.98;101053.22;7402574;19;1387;-62
2022/10/04 05:27:11;;;;;;;;;;;;;;;22.43;62.30;101055.72;7401548;19;1473;-67
2022/10/04 05:29:44;;;;;;;;;;;;;;;22.45;63.44;101056.41;7401958;19;1129;-69
2022/10/04 05:32:19;;;;;;;;;;;;;;;22.52;62.98;101060.19;7338703;19;12094;-71
2022/10/04 05:34:51;;;;;;;;;;;;;;;22.52;63.06;101062.91;7403817;19;1385;-70
2022/10/04 05:37:25;;;;;;;;;;;;;;;22.56;62.88;101056.19;7402199;19;1679;-73
2022/10/04 05:40:01;;;;;;;;;;;;;;;22.54;62.91;101068.09;7402169;19;1857;-75
2022/10/04 05:42:38;;;;;;;;;;;;;;;22.61;62.53;101078.13;7400593;19;1538;-74
2022/10/04 05:45:16;;;;;;;;;;;;;;;22.66;62.65;101071.44;7403438;19;1613;-68
2022/10/04 05:47:45;;;;;;;;;;;;;;;22.66;62.71;101082.22;7405132;19;1352;-71
2022/10/04 05:50:17;;;;;;;;;;;;;;;22.67;62.63;101076.69;7403867;19;1383;-70
2022/10/04 05:52:48;;;;;;;;;;;;;;;22.76;62.97;101072.22;7403931;19;1289;-73
2022/10/04 05:55:18;;;;;;;;;;;;;;;22.65;62.98;101059.81;7402770;19;1466;-72
2022/10/04 05:57:54;;;;;;;;;;;;;;;22.59;62.00;101082.84;7401719;19;1407;-67
2022/10/04 06:00:26;;;;;;;;;;;;;;;22.47;61.39;101078.66;7398854;19;1435;-76
2022/10/04 06:03:09;;;;;;;;;;;;;;;22.38;60.01;101091.19;7398075;19;1486;-73
2022/10/04 06:05:47;;;;;;;;;;;;;;;22.30;57.80;101101.00;7402605;19;1351;-72
2022/10/04 06:08:18;;;;;;;;;;;;;;;22.21;58.11;101108.97;7403346;19;1466;-68
2022/10/04 06:11:04;;;;;;;;;;;;;;;22.17;57.70;101094.09;7404264;19;1391;-69
2022/10/04 06:13:51;;;;;;;;;;;;;;;22.14;58.74;101110.53;7404520;19;1276;-69
2022/10/04 06:16:26;;;;;;;;;;;;;;;22.21;58.39;101117.03;7400857;19;1522;-67
2022/10/04 06:19:16;;;;;;;;;;;;;;;22.23;58.72;101125.81;7402493;19;1851;-66
2022/10/04 06:21:59;;;;;;;;;;;;;;;22.23;59.48;101120.44;7401654;19;1391;-65
2022/10/04 06:24:29;;;;;;;;;;;;;;;22.28;59.44;101128.09;7404074;19;1558;-66
2022/10/04 06:27:01;;;;;;;;;;;;;;;22.35;59.93;101125.66;7403346;19;1554;-65
2022/10/04 06:29:31;;;;;;;;;;;;;;;22.31;60.00;101122.41;7402179;19;1759;-67
2022/10/04 06:32:23;;;;;;;;;;;;;;;22.37;59.44;101115.59;7402982;19;1486;-66
2022/10/04 06:35:04;;;;;;;;;;;;;;;22.33;60.05;101124.97;7400655;19;1433;-63
2022/10/04 06:37:45;;;;;;;;;;;;;;;22.33;59.68;101120.44;7401867;19;1392;-74
2022/10/04 06:40:28;;;;;;;;;;;;;;;22.33;60.11;101141.13;7401053;19;1854;-66
2022/10/04 06:43:05;;;;;;;;;;;;;;;22.35;60.11;101145.38;7403089;19;1658;-67
2022/10/04 06:45:43;;;;;;;;;;;;;;;22.39;60.24;101141.38;7401491;19;1565;-67
2022/10/04 06:48:22;;;;;;;;;;;;;;;22.44;60.02;101143.63;7405245;19;1280;-70
2022/10/04 06:50:57;;;;;;;;;;;;;;;22.56;59.98;101150.53;7403221;19;1379;-70
2022/10/04 06:53:33;;;;;;;;;;;;;;;22.56;60.51;101139.75;7409998;19;1375;-72
2022/10/04 06:56:09;;;;;;;;;;;;;;;22.61;60.14;101159.00;7413158;19;1363;-67
2022/10/04 06:58:53;;;;;;;;;;;;;;;22.57;59.88;101160.31;7410045;19;1851;-60
2022/10/04 07:01:25;;;;;;;;;;;;;;;22.55;59.74;101151.53;7409682;19;1649;-67
2022/10/04 07:03:56;;;;;;;;;;;;;;;22.53;60.10;101158.91;7412398;19;1395;-67
2022/10/04 07:06:29;;;;;;;;;;;;;;;22.58;59.29;101145.84;7414325;19;1384;-66
2022/10/04 07:09:01;;;;;;;;;;;;;;;22.55;59.12;101162.31;7412067;19;1320;-66
2022/10/04 07:11:33;;;;;;;;;;;;;;;22.56;57.92;101179.31;7410186;19;1557;-67
2022/10/04 07:14:06;;;;;;;;;;;;;;;22.51;58.05;101169.00;7415077;19;1511;-79
2022/10/04 07:16:39;;;;;;;;;;;;;;;22.46;56.87;101175.81;7415240;19;1359;-65
2022/10/04 07:19:23;;;;;;;;;;;;;;;22.41;57.03;101187.88;7410070;19;1873;-61
2022/10/04 07:22:02;;;;;;;;;;;;;;;22.46;57.95;101179.34;7412150;19;1296;-67
2022/10/04 07:24:34;;;;;;;;;;;;;;;22.46;58.11;101173.97;7412499;19;1439;-66
2022/10/04 07:27:04;;;;;;;;;;;;;;;22.27;52.92;101176.75;7413046;19;1522;-67
2022/10/04 07:29:32;;;;;;;;;;;;;;;22.41;55.92;101182.50;7297300;19;12770;-65
2022/10/04 07:32:09;;;;;;;;;;;;;;;22.48;56.97;101181.91;7410171;19;1327;-67
2022/10/04 07:34:40;;;;;;;;;;;;;;;22.49;57.12;101170.16;7408667;19;1276;-65
2022/10/04 07:37:12;;;;;;;;;;;;;;;22.56;57.33;101174.78;7408004;19;1509;-65
2022/10/04 07:39:45;;;;;;;;;;;;;;;22.61;57.31;101177.88;7408507;19;1852;-65
2022/10/04 07:42:17;;;;;;;;;;;;;;;22.63;57.91;101173.19;7407972;19;1647;-72
2022/10/04 07:44:49;;;;;;;;;;;;;;;22.63;58.55;101181.25;7400791;19;1472;-72
2022/10/04 07:47:21;;;;;;;;;;;;;;;22.72;58.04;101184.06;7414443;19;1396;-73
2022/10/04 07:49:52;;;;;;;;;;;;;;;22.70;57.84;101196.84;7414671;19;1271;-70
2022/10/04 07:52:38;;;;;;;;;;;;;;;22.61;58.27;101183.25;7414748;19;1315;-71
2022/10/04 07:55:13;;;;;;;;;;;;;;;22.57;57.51;101186.41;7415586;19;1651;-72
2022/10/04 07:57:47;;;;;;;;;;;;;;;22.52;57.86;101191.38;7414755;19;1556;-72
2022/10/04 08:00:19;;;;;;;;;;;;;;;22.54;56.41;101197.47;7413570;19;1855;-64
2022/10/04 08:02:56;;;;;;;;;;;;;;;22.67;57.21;101181.81;7406899;19;1468;-69
2022/10/04 08:05:25;;;;;;;;;;;;;;;22.61;55.91;101199.44;7403447;19;1687;-68
2022/10/04 08:08:13;;;;;;;;;;;;;;;22.51;56.17;101204.03;7407702;19;1624;-71
2022/10/04 08:10:49;;;;;;;;;;;;;;;22.66;56.15;101209.78;7407620;19;1881;-70
2022/10/04 08:13:22;;;;;;;;;;;;;;;22.64;55.85;101207.25;7406374;19;1760;-70
2022/10/04 08:15:55;;;;;;;;;;;;;;;22.72;56.87;101211.03;7406653;19;1692;-69
2022/10/04 08:18:31;;;;;;;;;;;;;;;22.69;55.84;101196.00;7407113;19;1714;-69
2022/10/04 08:21:00;;;;;;;;;;;;;;;22.68;56.80;101210.50;7404456;19;1838;-70
2022/10/04 08:23:47;;;;;;;;;;;;;;;22.71;55.83;101203.94;7407044;19;1547;-76
2022/10/04 08:26:31;;;;;;;;;;;;;;;22.77;56.78;101192.56;7407585;19;1545;-68
2022/10/04 08:31:57;;;;;;;;;;;;;;;22.75;56.60;101189.16;7408133;19;1408;-72
2022/10/04 08:34:31;;;;;;;;;;;;;;;22.86;56.91;101198.88;7405655;19;1645;-68
2022/10/04 08:37:08;;;;;;;;;;;;;;;22.82;55.73;101201.06;7405543;19;1568;-70
2022/10/04 08:39:49;;;;;;;;;;;;;;;22.94;56.90;101194.47;7404945;19;1850;-70
2022/10/04 08:42:42;;;;;;;;;;;;;;;22.97;56.54;101204.94;7405264;19;1649;-71
2022/10/04 08:45:24;;;;;;;;;;;;;;;22.97;56.67;101212.19;7404864;19;1335;-72
2022/10/04 08:48:21;;;;;;;;;;;;;;;22.83;56.38;101208.97;7404745;19;1621;-65
2022/10/04 08:51:04;;;;;;;;;;;;;;;22.96;56.51;101208.63;7405123;19;1312;-64
2022/10/04 08:53:47;;;;;;;;;;;;;;;22.93;56.87;101208.91;7407298;19;1332;-64
2022/10/04 08:56:20;;;;;;;;;;;;;;;22.88;57.32;101204.97;7400907;19;1625;-63
2022/10/04 08:59:05;;;;;;;;;;;;;;;22.76;57.06;101201.63;7401093;19;1864;-64
2022/10/04 09:01:47;;;;;;;;;;;;;;;22.80;56.83;101208.41;7401142;19;1636;-60
2022/10/04 09:04:40;;;;;;;;;;;;;;;22.80;56.42;101217.38;7406081;19;1513;-64
2022/10/04 09:07:24;;;;;;;;;;;;;;;22.78;54.96;101213.13;7405718;19;1535;-64
2022/10/04 09:10:10;;;;;;;;;;;;;;;22.77;56.26;101204.19;7407782;19;972;-64
2022/10/04 09:12:54;;;;;;;;;;;;;;;22.65;53.74;101210.78;7406714;19;1023;-64
2022/10/04 09:15:29;;;;;;;;;;;;;;;22.59;53.77;101216.75;7405781;19;1051;-64
2022/10/04 09:18:05;;;;;;;;;;;;;;;22.62;52.83;101208.38;7407070;19;965;-64
2022/10/04 09:20:43;;;;;;;;;;;;;;;22.66;55.31;101215.19;7404641;19;1845;-64
2022/10/04 09:23:19;;;;;;;;;;;;;;;22.68;53.64;101210.50;7405985;19;1894;-63
2022/10/04 09:25:55;;;;;;;;;;;;;;;22.69;54.00;101212.19;7403988;19;1567;-64
2022/10/04 09:28:44;;;;;;;;;;;;;;;22.77;54.69;101200.66;7404733;19;1291;-64
2022/10/04 09:31:26;;;;;;;;;;;;;;;22.76;53.77;101198.94;7401932;19;1458;-70
2022/10/04 09:34:18;;;;;;;;;;;;;;;22.81;53.45;101202.88;7406903;19;1371;-72
2022/10/04 09:37:13;;;;;;;;;;;;;;;22.63;54.90;101170.47;7403183;19;1393;-69
2022/10/04 09:39:59;;;;;;;;;;;;;;;22.79;55.13;101204.88;7402300;19;1842;-69
2022/10/04 09:42:45;;;;;;;;;;;;;;;22.87;53.89;101214.91;7402816;19;1543;-68
2022/10/04 09:45:38;;;;;;;;;;;;;;;22.86;54.80;101213.25;7403530;19;1768;-69
2022/10/04 09:48:22;;;;;;;;;;;;;;;22.87;54.18;101212.22;7403874;19;1393;-69
2022/10/04 09:51:07;;;;;;;;;;;;;;;22.89;54.27;101207.53;7403724;19;1307;-68
2022/10/04 09:53:52;;;;;;;;;;;;;;;23.02;53.82;101213.47;7402386;19;1287;-68
2022/10/04 09:56:30;;;;;;;;;;;;;;;22.92;52.51;101219.84;7404387;19;1469;-71
2022/10/04 09:59:23;;;;;;;;;;;;;;;22.90;52.58;101208.38;7403842;19;1517;-71
2022/10/04 10:02:05;;;;;;;;;;;;;;;22.91;53.78;101216.31;7398033;19;1571;-70
2022/10/04 10:04:42;;;;;;;;;;;;;;;22.91;52.97;101205.53;7403459;19;1626;-70
2022/10/04 10:07:25;;;;;;;;;;;;;;;22.91;53.80;101199.28;7401933;19;1336;-70
2022/10/04 10:15:58;;;;;;;;;;;;;;;22.98;52.96;101214.72;7404456;19;1333;-70
2022/10/04 10:18:33;;;;;;;;;;;;;;;22.88;53.16;101203.16;7402435;19;1365;-71
2022/10/04 10:21:12;;;;;;;;;;;;;;;22.94;52.55;101207.94;7402482;19;1841;-71
2022/10/04 10:23:58;;;;;;;;;;;;;;;22.95;52.89;101206.91;7403799;19;1362;-71
2022/10/04 10:26:38;;;;;;;;;;;;;;;22.98;53.03;101203.94;7398286;19;1577;-71
2022/10/04 10:29:28;;;;;;;;;;;;;;;22.96;52.76;101196.97;7402581;19;1509;-70
2022/10/04 10:32:16;;;;;;;;;;;;;;;23.06;53.01;101208.63;7402345;19;1671;-67
2022/10/04 10:35:02;;;;;;;;;;;;;;;23.10;53.25;101203.75;7403259;19;1410;-68
2022/10/04 10:37:35;;;;;;;;;;;;;;;23.02;53.11;101208.06;7403331;19;1443;-67
2022/10/04 10:40:31;;;;;;;;;;;;;;;23.00;53.04;101204.63;7402658;19;1842;-67
2022/10/04 10:43:14;;;;;;;;;;;;;;;23.05;52.79;101201.50;7402571;19;1642;-66
2022/10/04 10:45:57;;;;;;;;;;;;;;;23.04;52.86;101205.22;7400267;19;1490;-67
2022/10/04 10:48:37;;;;;;;;;;;;;;;23.11;53.09;101210.84;7403238;19;1466;-66
2022/10/04 10:51:11;;;;;;;;;;;;;;;23.04;53.13;101216.00;7400938;19;1611;-67
2022/10/04 10:53:55;;;;;;;;;;;;;;;22.95;53.01;101206.09;7403062;19;1368;-67
2022/10/04 10:56:48;;;;;;;;;;;;;;;22.98;52.62;101225.50;7403302;19;1388;-67
2022/10/04 10:59:32;;;;;;;;;;;;;;;22.86;52.45;101207.84;7399753;19;1428;-67
2022/10/04 11:02:15;;;;;;;;;;;;;;;22.83;52.27;101211.66;7400477;19;1515;-67
2022/10/04 11:04:53;;;;;;;;;;;;;;;22.77;51.74;101209.56;7401658;19;1378;-69
2022/10/04 11:07:43;;;;;;;;;;;;;;;22.81;51.75;101207.44;7400104;19;1492;-70
2022/10/04 11:10:28;;;;;;;;;;;;;;;22.79;51.37;101214.81;7402471;19;1398;-70
2022/10/04 11:13:13;;;;;;;;;;;;;;;22.73;50.93;101215.44;7402228;19;1345;-70
2022/10/04 11:15:51;;;;;;;;;;;;;;;22.72;51.73;101211.88;7402685;19;1388;-69
2022/10/04 11:18:35;;;;;;;;;;;;;;;22.79;51.22;101229.16;7402121;19;1427;-70
2022/10/04 11:21:20;;;;;;;;;;;;;;;22.84;52.65;101213.38;7400122;19;1861;-73
2022/10/04 11:24:03;;;;;;;;;;;;;;;22.88;52.15;101205.84;7403243;19;1344;-76
2022/10/04 11:26:46;;;;;;;;;;;;;;;22.98;51.30;101214.72;7401221;19;1379;-72
2022/10/04 11:29:21;;;;;;;;;;;;;;;22.92;51.83;101207.25;7402128;19;1374;-75
2022/10/04 11:32:04;;;;;;;;;;;;;;;22.90;50.38;101193.06;7400565;19;1332;-71
2022/10/04 11:34:47;;;;;;;;;;;;;;;22.87;50.81;101208.69;7397706;19;1333;-71
2022/10/04 11:37:19;;;;;;;;;;;;;;;22.92;51.41;101218.03;7402111;19;1567;-71
2022/10/04 11:40:06;;;;;;;;;;;;;;;22.93;51.38;101208.09;7408127;19;1831;-69
2022/10/04 11:42:43;;;;;;;;;;;;;;;22.94;51.59;101213.34;7406509;19;1719;-69
2022/10/04 11:45:35;;;;;;;;;;;;;;;23.01;52.08;101221.66;7407826;19;1773;-64
2022/10/04 11:48:10;;;;;;;;;;;;;;;23.02;52.13;101224.25;7405330;19;1415;-60
2022/10/04 11:50:44;;;;;;;;;;;;;;;23.05;52.47;101227.63;7408661;19;1537;-63
2022/10/04 11:53:33;;;;;;;;;;;;;;;23.01;52.29;101210.88;7409141;19;1698;-67
2022/10/04 11:56:18;;;;;;;;;;;;;;;22.98;52.94;101212.03;7406301;19;1465;-63
2022/10/04 11:58:57;;;;;;;;;;;;;;;23.00;52.79;101215.44;7406274;19;1300;-62
2022/10/04 12:01:40;;;;;;;;;;;;;;;23.07;53.50;101226.47;7404051;19;1861;-63
2022/10/04 12:04:26;;;;;;;;;;;;;;;22.95;53.36;101228.50;7407348;19;1416;-63
2022/10/04 12:07:01;;;;;;;;;;;;;;;22.93;53.95;101227.81;7406449;19;1288;-66
2022/10/04 12:09:35;;;;;;;;;;;;;;;22.87;54.03;101228.41;7407968;19;1474;-64
2022/10/04 12:15:07;;;;;;;;;;;;;;;22.94;54.87;101236.75;7407149;19;1533;-64
2022/10/04 12:17:51;;;;;;;;;;;;;;;22.96;55.37;101224.81;7404936;19;1578;-62
2022/10/04 12:20:35;;;;;;;;;;;;;;;22.94;55.07;101225.94;7406194;19;1859;-65
2022/10/04 12:23:28;;;;;;;;;;;;;;;22.89;55.38;101233.66;7408140;19;1619;-63
2022/10/04 12:26:11;;;;;;;;;;;;;;;22.85;55.70;101238.50;7407725;19;1308;-65
2022/10/04 12:28:49;;;;;;;;;;;;;;;22.84;53.11;101220.63;7404826;19;1346;-72
2022/10/04 12:31:31;;;;;;;;;;;;;;;22.88;54.42;101227.44;7404916;19;1295;-64
2022/10/04 12:34:03;;;;;;;;;;;;;;;22.91;54.37;101227.09;7402061;19;1386;-79
2022/10/04 12:36:42;;;;;;;;;;;;;;;22.87;54.54;101225.72;7402916;19;1454;-65
2022/10/04 12:39:25;;;;;;;;;;;;;;;22.86;54.74;101239.34;7402150;19;1378;-65
2022/10/04 12:42:01;;;;;;;;;;;;;;;22.71;55.45;101230.91;7402926;19;1863;-65
2022/10/04 12:44:37;;;;;;;;;;;;;;;22.67;55.86;101221.41;7400878;19;1488;-65
2022/10/04 12:47:31;;;;;;;;;;;;;;;22.64;56.03;101215.31;7405329;19;1537;-65
2022/10/04 12:50:04;;;;;;;;;;;;;;;22.67;55.91;101229.50;7404309;19;1548;-65
2022/10/04 12:52:40;;;;;;;;;;;;;;;22.70;55.87;101226.50;7407676;19;1572;-65
2022/10/04 12:55:20;;;;;;;;;;;;;;;22.73;56.01;101229.75;7406402;19;1626;-65
2022/10/04 12:57:51;;;;;;;;;;;;;;;22.72;56.08;101237.97;7407625;19;1556;-65
2022/10/04 13:00:21;;;;;;;;;;;;;;;22.66;56.08;101231.38;7404936;19;1856;-64
2022/10/04 13:03:04;;;;;;;;;;;;;;;22.61;56.48;101239.88;7405109;19;1446;-66
2022/10/04 13:05:35;;;;;;;;;;;;;;;22.61;56.64;101245.25;7405963;19;1352;-65
2022/10/04 13:08:17;;;;;;;;;;;;;;;22.61;56.46;101231.78;7405804;19;1387;-65
2022/10/04 13:11:00;;;;;;;;;;;;;;;22.63;56.37;101237.88;7405868;19;1544;-66
2022/10/04 13:13:46;;;;;;;;;;;;;;;22.59;56.78;101235.63;7405540;19;1474;-65
2022/10/04 13:16:21;;;;;;;;;;;;;;;22.61;56.80;101245.25;7405891;19;1536;-65
2022/10/04 13:18:58;;;;;;;;;;;;;;;22.58;56.90;101245.56;7405738;19;1638;-66
2022/10/04 13:21:42;;;;;;;;;;;;;;;22.59;56.77;101247.25;7405501;19;1859;-66
2022/10/04 13:24:19;;;;;;;;;;;;;;;22.57;56.68;101241.16;7406816;19;1599;-65
2022/10/04 13:26:53;;;;;;;;;;;;;;;22.57;56.80;101233.09;7405057;19;1157;-65
2022/10/04 13:29:25;;;;;;;;;;;;;;;22.55;57.20;101251.25;7406026;19;1686;-64
2022/10/04 13:31:57;;;;;;;;;;;;;;;22.54;57.35;101251.38;7404253;19;1717;-65
2022/10/04 13:34:34;;;;;;;;;;;;;;;22.55;57.42;101253.94;7402376;19;1644;-65
2022/10/04 13:37:09;;;;;;;;;;;;;;;22.56;57.12;101261.03;7404639;19;1741;-65
2022/10/04 13:39:59;;;;;;;;;;;;;;;22.55;57.06;101240.47;7406819;19;1631;-66
2022/10/04 13:42:37;;;;;;;;;;;;;;;22.55;57.32;101247.72;7403431;19;1856;-65
2022/10/04 13:45:17;;;;;;;;;;;;;;;22.55;57.54;101247.72;7404744;19;1537;-65
2022/10/04 13:47:55;;;;;;;;;;;;;;;22.57;57.28;101241.16;7404626;19;1750;-65
2022/10/04 13:50:32;;;;;;;;;;;;;;;22.55;57.33;101245.84;7405133;19;1709;-65
2022/10/04 13:58:36;;;;;;;;;;;;;;;22.56;57.53;101257.47;7406797;19;1405;-65
2022/10/04 14:01:19;;;;;;;;;;;;;;;22.57;57.71;101262.72;7403395;19;1848;-66
2022/10/04 14:03:54;;;;;;;;;;;;;;;22.56;57.87;101250.25;7402817;19;1089;-64